Latest Weather Observations for Nerriga

IDN60801

Issued at 3:35 pm EST Thursday 24 April 2014 (issued every 30 minutes, with the page automatically refreshed every 10 minutes)

About weather observations | Map of weather stations | Latest weather observations for NSW | Other Formats
Station Details ID: 069128 Name: NERRIGA AWS Lat: -35.11 Lon: 150.08 Height: 622.0 m
Data from the previous 72 hours. | See also: Recent months for locations in New South Wales
Date/Time
EST
Temp
°C
App
Temp
°C
Dew
Point
Rel
Hum
%
Delta-T
°C
Wind Press
QNH
hPa
Press
MSL
hPa
Rain
since 9 am
mm
Dir
 
Spd
km/h
Gust
km/h
Spd
kts
Gust
kts
24/03:30pm 20.0 13.6 9.3 50 5.8 W 33 48 18 26 1014.4 - -
24/03:10pm 20.2 13.6 8.5 47 6.3 WNW 33 52 18 28 1014.0 - -
24/03:00pm 20.5 14.3 9.4 49 6.1 WNW 32 46 17 25 1014.2 1013.2 -
24/02:30pm 20.9 15.4 10.7 52 5.7 W 30 46 16 25 1013.9 - -
24/02:00pm 20.4 12.8 9.0 48 6.2 WNW 39 57 21 31 1013.7 1012.7 -
24/01:50pm 20.7 13.2 9.3 48 6.3 WNW 39 57 21 31 1013.7 - -
24/01:30pm 20.6 13.8 9.2 48 6.2 W 35 50 19 27 1013.9 - -
24/01:19pm 20.4 14.1 9.0 48 6.2 WNW 32 54 17 29 1013.8 - -
24/01:00pm 21.2 15.1 9.8 48 6.3 NW 32 44 17 24 1013.8 1012.8 -
24/12:30pm 20.7 14.4 9.6 49 6.1 WNW 33 44 18 24 1013.9 - -
24/12:00pm 21.1 16.3 10.3 50 6.0 WNW 26 43 14 23 1014.5 1013.5 -
24/11:30am 20.7 16.4 9.3 48 6.3 WNW 22 33 12 18 1014.9 - 0.0
24/11:00am 19.8 14.7 7.5 45 6.5 WNW 24 30 13 16 1015.1 1014.2 0.0
24/10:30am 19.4 13.3 6.5 43 6.7 NW 28 39 15 21 1015.1 - 0.0
24/10:00am 19.1 14.7 7.2 46 6.2 NW 20 28 11 15 1015.3 1014.3 0.0
24/09:30am 17.7 13.2 6.9 49 5.6 NW 20 28 11 15 1015.1 - 0.0
24/09:00am 16.2 13.2 7.9 58 4.3 NNW 13 19 7 10 1015.4 1014.4 0.0
24/08:30am 14.7 12.6 6.8 59 4.0 NNW 7 11 4 6 1015.4 - 0.0
24/08:00am 13.1 10.9 6.0 62 3.5 NW 7 11 4 6 1015.0 1014.1 0.0
24/07:30am 11.1 8.1 6.0 71 2.5 NNW 11 13 6 7 1014.6 - 0.0
24/07:00am 11.1 8.5 6.3 72 2.3 NNW 9 15 5 8 1014.3 1013.3 0.0
24/06:30am 11.2 8.6 6.1 71 2.5 NNW 9 11 5 6 1014.2 - 0.0
24/06:00am 11.3 7.8 5.6 68 2.7 NW 13 19 7 10 1014.1 1013.1 0.0
24/05:30am 12.4 8.2 5.8 64 3.2 NW 17 20 9 11 1013.8 - 0.0
24/05:00am 12.3 8.1 5.9 65 3.1 NW 17 22 9 12 1013.9 1012.9 0.0
24/04:30am 12.0 8.7 6.3 68 2.8 NW 13 19 7 10 1014.0 - 0.0
24/04:00am 11.6 9.2 7.1 74 2.2 NNW 9 11 5 6 1014.0 1013.0 0.0
24/03:30am 11.2 8.8 6.9 75 2.1 NNW 9 13 5 7 1013.9 - 0.0
24/03:00am 11.9 9.9 7.0 72 2.4 N 7 9 4 5 1014.2 1013.2 0.0
24/02:30am 12.6 10.8 7.1 69 2.7 NNW 6 9 3 5 1014.4 - 0.0
24/02:00am 11.3 9.8 7.0 75 2.1 N 4 7 2 4 1014.8 1013.8 0.0
24/01:30am 12.2 11.6 7.5 73 2.4 CALM 0 0 0 0 1015.1 - 0.0
24/01:00am 13.0 11.6 7.2 68 2.9 N 4 6 2 3 1015.0 1014.1 0.0
24/12:30am 13.8 12.0 7.8 67 3.1 N 7 9 4 5 1015.0 - 0.0
24/12:00am 14.1 11.9 7.9 66 3.2 N 9 13 5 7 1015.1 1014.2 0.0
 
Date/Time
EST
Temp
°C
App
Temp
°C
Dew
Point
Rel
Hum
%
Delta-T
°C
Wind Press
QNH
hPa
Press
MSL
hPa
Rain
since 9 am
mm
Dir
 
Spd
km/h
Gust
km/h
Spd
kts
Gust
kts
23/11:30pm 14.3 11.8 8.0 66 3.2 N 11 15 6 8 1015.4 - 0.0
23/11:00pm 14.0 12.3 8.2 68 3.0 N 7 9 4 5 1015.5 1014.5 0.0
23/10:30pm 14.6 12.1 8.1 65 3.4 N 11 15 6 8 1015.7 - 0.0
23/10:00pm 15.2 13.1 8.2 63 3.6 N 9 13 5 7 1016.0 1015.0 0.0
23/09:30pm 15.3 13.7 8.1 62 3.7 N 6 7 3 4 1016.1 - 0.0
23/09:00pm 15.4 13.8 8.2 62 3.7 N 6 7 3 4 1016.3 1015.4 0.0
23/08:30pm 15.5 13.8 8.3 62 3.8 N 7 9 4 5 1016.3 - 0.0
23/08:00pm 15.7 13.9 8.0 60 4.0 N 7 7 4 4 1016.4 1015.5 0.0
23/07:30pm 14.7 13.5 8.0 64 3.5 NW 4 6 2 3 1016.5 - 0.0
23/07:00pm 15.2 13.5 7.7 61 3.9 NW 6 6 3 3 1016.6 1015.7 0.0
23/06:30pm 15.5 13.9 7.8 60 4.0 NW 6 7 3 4 1016.4 - 0.0
23/06:00pm 16.1 14.3 7.3 56 4.5 NW 6 7 3 4 1016.3 1015.4 0.0
23/05:30pm 17.2 14.6 7.8 54 4.9 NW 11 15 6 8 1016.1 - 0.0
23/05:00pm 18.6 15.7 8.3 51 5.5 NW 13 17 7 9 1016.0 1015.0 0.0
23/04:30pm 19.9 16.7 8.3 47 6.2 NNW 15 20 8 11 1015.9 - 0.0
23/04:00pm 20.7 16.5 8.4 45 6.6 NW 20 28 11 15 1015.8 1014.8 0.0
23/03:30pm 21.0 17.4 8.3 44 6.8 NW 17 22 9 12 1015.9 - 0.0
23/03:00pm 21.2 18.2 9.4 47 6.5 NW 15 20 8 11 1016.0 1015.0 0.0
23/02:30pm 21.3 18.6 8.9 45 6.8 NW 13 19 7 10 1016.2 - 0.0
23/02:00pm 21.0 18.6 8.6 45 6.7 NW 11 20 6 11 1016.4 1015.5 0.0
23/01:30pm 20.7 17.4 9.6 49 6.1 NW 17 22 9 12 1016.6 - 0.0
23/01:00pm 19.2 15.6 8.5 50 5.7 W 17 24 9 13 1016.8 1015.9 0.0
23/12:30pm 20.1 16.2 8.8 48 6.1 W 19 24 10 13 1017.5 - 0.0
23/12:00pm 19.9 17.0 9.8 52 5.6 WSW 15 20 8 11 1018.0 1017.1 0.0
23/11:30am 19.1 17.8 9.9 55 5.1 WSW 7 11 4 6 1018.4 - 0.0
23/11:00am 18.3 16.2 9.9 58 4.6 W 11 15 6 8 1019.1 1018.2 0.0
23/10:30am 17.0 15.8 9.4 61 4.1 W 6 11 3 6 1019.3 - 0.0
23/10:00am 15.9 14.6 9.8 67 3.3 WSW 7 15 4 8 1019.7 1018.8 0.0
23/09:30am 13.8 13.0 9.6 76 2.2 N 4 7 2 4 1019.4 - 0.0
23/09:00am 13.9 13.3 8.9 72 2.6 N 2 6 1 3 1019.4 1018.5 0.0
23/08:30am 11.8 11.5 8.8 82 1.5 CALM 0 2 0 1 1019.7 - 0.0
23/08:00am 8.8 8.4 8.2 96 0.3 CALM 0 0 0 0 1019.7 1018.8 0.0
23/07:30am 7.2 5.7 6.9 98 0.1 W 4 6 2 3 1019.3 - 0.0
23/07:00am 7.0 5.9 6.7 98 0.1 W 2 4 1 2 1019.1 1018.2 0.0
23/06:30am 7.5 5.5 7.2 98 0.1 WSW 7 11 4 6 1018.4 - 0.0
23/06:00am 6.8 4.7 6.5 98 0.1 WSW 7 11 4 6 1019.0 1018.0 0.0
23/05:30am 6.2 3.9 5.9 98 0.1 WSW 7 9 4 5 1018.0 - 0.0
23/05:00am 6.9 5.4 6.6 98 0.1 WSW 4 6 2 3 1018.5 1017.6 0.0
23/04:30am 6.6 5.4 6.3 98 0.1 WSW 2 4 1 2 1018.7 - 0.0
23/04:00am 5.9 4.1 5.6 98 0.1 N 4 6 2 3 1018.4 1017.5 0.0
23/03:30am 6.5 5.6 6.2 98 0.1 CALM 0 0 0 0 1018.2 - 0.0
23/03:00am 7.2 6.5 6.9 98 0.1 CALM 0 0 0 0 1018.0 1017.1 0.0
23/02:30am 6.9 6.1 6.6 98 0.1 CALM 0 0 0 0 1018.1 - 0.0
23/02:00am 6.4 4.7 6.1 98 0.1 N 4 6 2 3 1018.2 1017.3 0.0
23/01:30am 7.5 6.5 7.2 98 0.1 N 2 4 1 2 1018.5 - 0.0
23/01:00am 6.8 6.0 6.5 98 0.1 CALM 0 0 0 0 1018.7 1017.7 0.0
23/12:30am 7.1 6.3 6.5 96 0.3 CALM 0 0 0 0 1018.8 - 0.0
23/12:00am 7.5 6.6 6.1 91 0.7 CALM 0 4 0 2 1018.9 1017.9 0.0
 
Date/Time
EST
Temp
°C
App
Temp
°C
Dew
Point
Rel
Hum
%
Delta-T
°C
Wind Press
QNH
hPa
Press
MSL
hPa
Rain
since 9 am
mm
Dir
 
Spd
km/h
Gust
km/h
Spd
kts
Gust
kts
22/11:30pm 8.9 8.0 7.8 93 0.5 NNW 2 6 1 3 1018.9 - 0.0
22/11:00pm 8.9 8.3 7.4 90 0.7 CALM 0 0 0 0 1019.0 1018.0 0.0
22/10:30pm 9.1 8.3 6.7 85 1.2 CALM 0 0 0 0 1019.0 - 0.0
22/10:00pm 10.9 9.5 7.2 78 1.8 NNW 4 7 2 4 1019.0 1018.0 0.0
22/09:30pm 11.4 9.8 8.1 80 1.7 NNW 6 7 3 4 1019.0 - 0.0
22/09:00pm 12.1 10.4 8.4 78 1.9 NNW 7 9 4 5 1018.9 1017.9 0.0
22/08:30pm 11.8 10.6 7.9 77 2.0 NNW 4 6 2 3 1018.9 - 0.0
22/08:00pm 12.6 10.8 8.1 74 2.3 NNW 7 7 4 4 1018.7 1017.7 0.0
22/07:30pm 13.2 11.6 8.1 71 2.6 NNW 6 7 3 4 1018.7 - 0.0
22/07:00pm 13.4 11.2 8.0 70 2.8 NNW 9 9 5 5 1018.5 1017.6 0.0
22/06:30pm 13.8 11.6 8.0 68 3.0 NW 9 11 5 6 1018.0 - 0.0
22/06:00pm 14.3 11.8 8.0 66 3.2 NNW 11 13 6 7 1017.7 1016.8 0.0
22/05:30pm 15.4 12.2 8.6 64 3.6 NW 15 20 8 11 1017.4 - 0.0
22/05:00pm 16.4 12.7 7.9 57 4.4 NW 17 22 9 12 1017.2 1016.2 0.0
22/04:30pm 16.8 13.0 7.7 55 4.7 NW 17 26 9 14 1017.0 - 0.0
22/04:00pm 17.7 14.2 7.4 51 5.4 NW 15 22 8 12 1016.7 1015.8 0.0
22/03:30pm 18.8 15.0 7.6 48 5.9 WNW 17 28 9 15 1016.6 - 0.0
22/03:00pm 19.4 15.0 7.5 46 6.3 NW 20 26 11 14 1016.4 1015.5 0.0
22/02:30pm 20.0 15.6 6.4 41 7.0 WNW 19 26 10 14 1016.3 - 0.0
22/02:00pm 20.1 16.6 5.4 38 7.5 W 13 19 7 10 1016.3 1015.4 0.0
22/01:30pm 19.9 14.9 4.4 36 7.7 WNW 20 28 11 15 1016.4 - 0.0
22/01:00pm 20.1 14.6 4.2 35 7.9 NW 22 26 12 14 1016.7 1015.8 0.0
22/12:30pm 20.1 14.3 4.6 36 7.8 W 24 32 13 17 1017.3 - 0.0
22/12:00pm 19.1 15.3 7.5 47 6.1 WNW 17 22 9 12 1017.6 1016.6 0.0
22/11:30am 18.9 16.2 10.5 58 4.7 WNW 15 20 8 11 1018.1 - 0.0
22/11:00am 16.9 16.0 11.2 69 3.2 NNW 7 11 4 6 1018.7 1017.7 0.0
22/10:30am 15.4 14.5 11.2 76 2.3 NNW 7 9 4 5 1019.0 - 0.0
22/10:00am 14.0 13.2 11.0 82 1.6 E 6 7 3 4 1019.3 1018.4 0.0
22/09:30am 12.0 12.2 10.7 92 0.7 CALM 0 0 0 0 1019.4 - 0.0
22/09:00am 10.6 9.6 10.3 98 0.2 E 6 7 3 4 1019.8 1018.9 0.2
22/08:30am 10.1 10.1 9.8 98 0.2 CALM 0 0 0 0 1019.7 - 0.2
22/08:00am 7.7 7.1 7.4 98 0.1 CALM 0 0 0 0 1019.6 1018.7 0.2
22/07:30am 6.7 5.9 6.4 98 0.1 CALM 0 0 0 0 1019.4 - 0.2
22/07:00am 6.0 4.3 5.7 98 0.1 E 4 6 2 3 1019.3 1018.4 0.2
22/06:30am 5.5 3.3 5.2 98 0.1 E 6 7 3 4 1019.2 - 0.2
22/06:00am 5.5 4.4 5.2 98 0.1 CALM 0 0 0 0 1019.5 1018.6 0.0
22/05:30am 5.8 4.8 5.5 98 0.1 CALM 0 0 0 0 1019.6 - 0.0
22/05:00am 6.0 5.0 5.7 98 0.1 CALM 0 0 0 0 1019.6 1018.7 0.0
22/04:30am 6.5 5.2 6.2 98 0.1 E 2 4 1 2 1019.4 - 0.0
22/04:00am 7.0 5.9 6.7 98 0.1 E 2 4 1 2 1019.3 1018.4 0.0
22/03:30am 8.3 7.1 8.0 98 0.1 E 4 4 2 2 1019.2 - 0.0
22/03:00am 7.5 6.9 7.2 98 0.1 CALM 0 0 0 0 1019.4 1018.5 0.0
22/02:30am 7.7 7.1 7.4 98 0.1 CALM 0 0 0 0 1019.8 - 0.0
22/02:00am 7.9 7.3 7.6 98 0.1 CALM 0 0 0 0 1019.9 1019.0 0.0
22/01:30am 9.8 9.3 9.5 98 0.2 E 2 4 1 2 1020.1 - 0.0
22/01:00am 9.4 9.2 9.1 98 0.2 CALM 0 0 0 0 1020.4 1019.4 0.0
22/12:30am 9.6 9.5 9.3 98 0.2 CALM 0 0 0 0 1020.6 - 0.0
22/12:00am 9.1 8.8 8.8 98 0.2 CALM 0 2 0 1 1020.7 1019.8 0.0
 
Date/Time
EST
Temp
°C
App
Temp
°C
Dew
Point
Rel
Hum
%
Delta-T
°C
Wind Press
QNH
hPa
Press
MSL
hPa
Rain
since 9 am
mm
Dir
 
Spd
km/h
Gust
km/h
Spd
kts
Gust
kts
21/11:30pm 9.7 9.6 9.4 98 0.2 CALM 0 4 0 2 1020.9 - 0.0
21/11:00pm 10.4 9.7 10.1 98 0.2 E 4 6 2 3 1020.9 1020.0 0.0
21/10:30pm 10.2 10.2 9.9 98 0.2 CALM 0 0 0 0 1021.1 - 0.0
21/10:00pm 10.0 9.6 9.7 98 0.2 E 2 4 1 2 1021.2 1020.3 0.0
21/09:30pm 10.7 10.9 10.4 98 0.2 CALM 0 2 0 1 1021.3 - 0.0
21/09:00pm 11.5 11.5 11.2 98 0.2 E 2 4 1 2 1021.2 1020.3 0.0
21/08:30pm 12.0 11.4 11.7 98 0.2 E 6 6 3 3 1021.0 - 0.0
21/08:00pm 11.4 10.4 11.1 98 0.2 E 7 9 4 5 1020.8 1019.9 0.0
21/07:30pm 11.5 10.6 11.2 98 0.2 E 7 9 4 5 1020.9 - 0.0
21/07:00pm 11.9 11.3 11.6 98 0.2 E 6 7 3 4 1021.0 1020.1 0.0
21/06:30pm 11.9 10.9 11.1 95 0.4 E 7 9 4 5 1020.8 - 0.0
21/06:00pm 12.8 11.8 11.0 89 1.0 E 7 9 4 5 1020.6 1019.7 0.0
21/05:30pm 13.7 12.0 11.2 85 1.4 E 11 13 6 7 1020.0 - 0.0
21/05:00pm 14.7 13.3 10.9 78 2.1 ENE 9 13 5 7 1019.8 1018.9 0.0
21/04:30pm 15.8 13.6 10.8 72 2.7 ENE 13 17 7 9 1019.7 - 0.0
21/04:00pm 16.4 14.6 10.7 69 3.1 NE 11 17 6 9 1019.6 1018.7 0.0

Other Formats:

Comma delimited format used in spreadsheet applications
http://www.bom.gov.au/fwo/IDN60801/IDN60801.94943.axf

JavaScript Object Notation format (JSON) in row-major order
http://www.bom.gov.au/fwo/IDN60801/IDN60801.94943.json